sensor_id;sensor_type;location;lat;lon;timestamp;temperature;humidity
69225;DHT22;56333;51.306;17.056;2023-08-06T18:10:46;16.12;87.40
69225;DHT22;56333;51.306;17.056;2023-08-06T18:12:19;16.10;87.43
69225;DHT22;56333;51.306;17.056;2023-08-06T18:13:46;16.09;87.55
69225;DHT22;56333;51.306;17.056;2023-08-06T18:15:13;16.07;87.50
69225;DHT22;56333;51.306;17.056;2023-08-06T18:16:40;16.06;87.60
69225;DHT22;56333;51.306;17.056;2023-08-06T18:18:07;16.07;87.68
69225;DHT22;56333;51.306;17.056;2023-08-06T18:19:35;16.05;87.68
69225;DHT22;56333;51.306;17.056;2023-08-06T18:21:02;16.04;87.65
69225;DHT22;56333;51.306;17.056;2023-08-06T18:22:32;16.06;87.70
69225;DHT22;56333;51.306;17.056;2023-08-06T18:24:00;16.04;87.75
69225;DHT22;56333;51.306;17.056;2023-08-06T18:25:29;16.04;87.80
69225;DHT22;56333;51.306;17.056;2023-08-06T18:26:56;16.02;87.75
69225;DHT22;56333;51.306;17.056;2023-08-06T18:28:26;16.01;87.60
69225;DHT22;56333;51.306;17.056;2023-08-06T18:29:53;16.01;87.60
69225;DHT22;56333;51.306;17.056;2023-08-06T18:31:20;15.98;87.70
69225;DHT22;56333;51.306;17.056;2023-08-06T18:32:47;15.99;87.65
69225;DHT22;56333;51.306;17.056;2023-08-06T18:34:15;15.97;87.57
69225;DHT22;56333;51.306;17.056;2023-08-06T18:35:42;15.96;87.50
69225;DHT22;56333;51.306;17.056;2023-08-06T18:37:10;15.96;87.60
69225;DHT22;56333;51.306;17.056;2023-08-06T18:38:37;15.94;87.60
69225;DHT22;56333;51.306;17.056;2023-08-06T18:40:08;15.93;87.63
69225;DHT22;56333;51.306;17.056;2023-08-06T18:41:35;15.92;87.63
69225;DHT22;56333;51.306;17.056;2023-08-06T18:43:02;15.91;87.72
69225;DHT22;56333;51.306;17.056;2023-08-06T18:44:29;15.93;87.78
69225;DHT22;56333;51.306;17.056;2023-08-06T18:45:56;15.90;87.70
69225;DHT22;56333;51.306;17.056;2023-08-06T18:47:24;15.91;87.78
69225;DHT22;56333;51.306;17.056;2023-08-06T18:48:51;15.93;87.72
69225;DHT22;56333;51.306;17.056;2023-08-06T18:50:19;15.92;87.80
69225;DHT22;56333;51.306;17.056;2023-08-06T18:51:46;15.92;87.80
69225;DHT22;56333;51.306;17.056;2023-08-06T18:53:13;15.91;87.78
69225;DHT22;56333;51.306;17.056;2023-08-06T18:54:41;15.93;87.80
69225;DHT22;56333;51.306;17.056;2023-08-06T18:56:08;15.95;87.78
69225;DHT22;56333;51.306;17.056;2023-08-06T18:57:36;15.94;87.80
69225;DHT22;56333;51.306;17.056;2023-08-06T18:59:03;15.95;87.75
69225;DHT22;56333;51.306;17.056;2023-08-06T19:00:30;15.94;87.70
69225;DHT22;56333;51.306;17.056;2023-08-06T19:01:58;15.93;87.72
69225;DHT22;56333;51.306;17.056;2023-08-06T19:03:25;15.92;87.60
69225;DHT22;56333;51.306;17.056;2023-08-06T19:04:54;15.91;87.60
69225;DHT22;56333;51.306;17.056;2023-08-06T19:06:22;15.89;87.63
69225;DHT22;56333;51.306;17.056;2023-08-06T19:07:53;15.88;87.60
69225;DHT22;56333;51.306;17.056;2023-08-06T19:09:20;15.88;87.60
69225;DHT22;56333;51.306;17.056;2023-08-06T19:10:48;15.88;87.63
69225;DHT22;56333;51.306;17.056;2023-08-06T19:12:15;15.88;87.78
69225;DHT22;56333;51.306;17.056;2023-08-06T19:13:45;15.89;87.85
69225;DHT22;56333;51.306;17.056;2023-08-06T19:15:12;15.89;87.78
69225;DHT22;56333;51.306;17.056;2023-08-06T19:16:39;15.88;87.80
69225;DHT22;56333;51.306;17.056;2023-08-06T19:18:10;15.87;87.82
69225;DHT22;56333;51.306;17.056;2023-08-06T19:19:36;15.89;87.88
69225;DHT22;56333;51.306;17.056;2023-08-06T19:21:07;15.89;87.90
69225;DHT22;56333;51.306;17.056;2023-08-06T19:22:34;15.90;87.90
69225;DHT22;56333;51.306;17.056;2023-08-06T19:24:01;15.91;87.90
69225;DHT22;56333;51.306;17.056;2023-08-06T19:25:28;15.91;87.85
69225;DHT22;56333;51.306;17.056;2023-08-06T19:26:56;15.90;87.78
69225;DHT22;56333;51.306;17.056;2023-08-06T19:28:23;15.91;87.80
69225;DHT22;56333;51.306;17.056;2023-08-06T19:29:51;15.90;87.70
69225;DHT22;56333;51.306;17.056;2023-08-06T19:31:18;15.86;87.28
69225;DHT22;56333;51.306;17.056;2023-08-06T19:32:45;15.85;87.35
69225;DHT22;56333;51.306;17.056;2023-08-06T19:34:12;15.85;87.40
69225;DHT22;56333;51.306;17.056;2023-08-06T19:35:48;15.82;87.22
69225;DHT22;56333;51.306;17.056;2023-08-06T19:37:16;15.84;87.40
69225;DHT22;56333;51.306;17.056;2023-08-06T19:38:47;15.82;87.38
69225;DHT22;56333;51.306;17.056;2023-08-06T19:40:17;15.81;87.38
69225;DHT22;56333;51.306;17.056;2023-08-06T19:41:44;15.82;87.38
69225;DHT22;56333;51.306;17.056;2023-08-06T19:43:11;15.82;87.40
69225;DHT22;56333;51.306;17.056;2023-08-06T19:44:38;15.82;87.47
69225;DHT22;56333;51.306;17.056;2023-08-06T19:46:05;15.80;87.38
69225;DHT22;56333;51.306;17.056;2023-08-06T19:47:33;15.77;87.28
69225;DHT22;56333;51.306;17.056;2023-08-06T19:49:00;15.76;87.30
69225;DHT22;56333;51.306;17.056;2023-08-06T19:50:27;15.74;87.40
69225;DHT22;56333;51.306;17.056;2023-08-06T19:51:54;15.72;87.40
69225;DHT22;56333;51.306;17.056;2023-08-06T19:53:21;15.69;87.32
69225;DHT22;56333;51.306;17.056;2023-08-06T19:54:50;15.68;87.30
69225;DHT22;56333;51.306;17.056;2023-08-06T19:56:17;15.66;87.30
69225;DHT22;56333;51.306;17.056;2023-08-06T19:57:43;15.68;87.40
69225;DHT22;56333;51.306;17.056;2023-08-06T19:59:10;15.70;87.47
69225;DHT22;56333;51.306;17.056;2023-08-06T20:00:38;15.70;87.60
69225;DHT22;56333;51.306;17.056;2023-08-06T20:02:05;15.71;87.65
69225;DHT22;56333;51.306;17.056;2023-08-06T20:03:33;15.72;87.63
69225;DHT22;56333;51.306;17.056;2023-08-06T20:05:02;15.73;87.65
69225;DHT22;56333;51.306;17.056;2023-08-06T20:06:29;15.73;87.65
69225;DHT22;56333;51.306;17.056;2023-08-06T20:07:56;15.73;87.55
69225;DHT22;56333;51.306;17.056;2023-08-06T20:09:23;15.72;87.53
69225;DHT22;56333;51.306;17.056;2023-08-06T20:10:51;15.72;87.50
69225;DHT22;56333;51.306;17.056;2023-08-06T20:12:21;15.72;87.50
69225;DHT22;56333;51.306;17.056;2023-08-06T20:13:48;15.69;87.50
69225;DHT22;56333;51.306;17.056;2023-08-06T20:15:15;15.71;87.50
69225;DHT22;56333;51.306;17.056;2023-08-06T20:16:42;15.70;87.47
69225;DHT22;56333;51.306;17.056;2023-08-06T20:18:09;15.70;87.40
69225;DHT22;56333;51.306;17.056;2023-08-06T20:19:35;15.72;87.47
69225;DHT22;56333;51.306;17.056;2023-08-06T20:21:03;15.71;87.40
69225;DHT22;56333;51.306;17.056;2023-08-06T20:22:33;15.72;87.43
69225;DHT22;56333;51.306;17.056;2023-08-06T20:24:00;15.73;87.57
69225;DHT22;56333;51.306;17.056;2023-08-06T20:25:28;15.71;87.45
69225;DHT22;56333;51.306;17.056;2023-08-06T20:26:55;15.72;87.32
69225;DHT22;56333;51.306;17.056;2023-08-06T20:28:21;15.73;87.32
69225;DHT22;56333;51.306;17.056;2023-08-06T20:29:50;15.72;87.35
69225;DHT22;56333;51.306;17.056;2023-08-06T20:31:17;15.74;87.30
69225;DHT22;56333;51.306;17.056;2023-08-06T20:32:45;15.74;87.40
69225;DHT22;56333;51.306;17.056;2023-08-06T20:34:12;15.74;87.30
69225;DHT22;56333;51.306;17.056;2023-08-06T20:35:40;15.73;87.30
69225;DHT22;56333;51.306;17.056;2023-08-06T20:37:07;15.72;87.30
69225;DHT22;56333;51.306;17.056;2023-08-06T20:38:34;15.71;87.25
69225;DHT22;56333;51.306;17.056;2023-08-06T20:40:03;15.70;87.25
69225;DHT22;56333;51.306;17.056;2023-08-06T20:41:32;15.68;87.32
69225;DHT22;56333;51.306;17.056;2023-08-06T20:42:59;15.68;87.43
69225;DHT22;56333;51.306;17.056;2023-08-06T20:44:26;15.67;87.47
69225;DHT22;56333;51.306;17.056;2023-08-06T20:45:58;15.69;87.63
69225;DHT22;56333;51.306;17.056;2023-08-06T20:47:27;15.70;87.65
69225;DHT22;56333;51.306;17.056;2023-08-06T20:48:54;15.73;87.60
69225;DHT22;56333;51.306;17.056;2023-08-06T20:50:21;15.73;87.45
69225;DHT22;56333;51.306;17.056;2023-08-06T20:51:48;15.71;87.32
69225;DHT22;56333;51.306;17.056;2023-08-06T20:53:15;15.72;87.30
69225;DHT22;56333;51.306;17.056;2023-08-06T20:54:43;15.71;87.28
69225;DHT22;56333;51.306;17.056;2023-08-06T20:56:11;15.69;87.20
69225;DHT22;56333;51.306;17.056;2023-08-06T20:57:43;15.69;87.22
69225;DHT22;56333;51.306;17.056;2023-08-06T20:59:10;15.69;87.25
69225;DHT22;56333;51.306;17.056;2023-08-06T21:00:37;15.68;87.20
69225;DHT22;56333;51.306;17.056;2023-08-06T21:02:05;15.69;87.25
69225;DHT22;56333;51.306;17.056;2023-08-06T21:03:32;15.69;87.22
69225;DHT22;56333;51.306;17.056;2023-08-06T21:04:59;15.70;87.35
69225;DHT22;56333;51.306;17.056;2023-08-06T21:06:27;15.69;87.28
69225;DHT22;56333;51.306;17.056;2023-08-06T21:07:54;15.68;87.20
69225;DHT22;56333;51.306;17.056;2023-08-06T21:09:21;15.69;87.15
69225;DHT22;56333;51.306;17.056;2023-08-06T21:10:49;15.69;87.15
69225;DHT22;56333;51.306;17.056;2023-08-06T21:12:16;15.65;87.07
69225;DHT22;56333;51.306;17.056;2023-08-06T21:13:43;15.66;87.10
69225;DHT22;56333;51.306;17.056;2023-08-06T21:15:11;15.65;87.13
69225;DHT22;56333;51.306;17.056;2023-08-06T21:16:38;15.65;87.15
69225;DHT22;56333;51.306;17.056;2023-08-06T21:18:05;15.63;87.07
69225;DHT22;56333;51.306;17.056;2023-08-06T21:19:32;15.62;87.05
69225;DHT22;56333;51.306;17.056;2023-08-06T21:21:00;15.61;87.07
69225;DHT22;56333;51.306;17.056;2023-08-06T21:22:29;15.61;87.05
69225;DHT22;56333;51.306;17.056;2023-08-06T21:23:57;15.61;87.07
69225;DHT22;56333;51.306;17.056;2023-08-06T21:25:24;15.61;87.05
69225;DHT22;56333;51.306;17.056;2023-08-06T21:26:52;15.61;86.97
69225;DHT22;56333;51.306;17.056;2023-08-06T21:28:19;15.61;87.00
69225;DHT22;56333;51.306;17.056;2023-08-06T21:29:45;15.62;87.03
69225;DHT22;56333;51.306;17.056;2023-08-06T21:31:13;15.60;87.00
69225;DHT22;56333;51.306;17.056;2023-08-06T21:32:39;15.60;87.00
69225;DHT22;56333;51.306;17.056;2023-08-06T21:34:06;15.61;87.10
69225;DHT22;56333;51.306;17.056;2023-08-06T21:35:33;15.61;87.05
69225;DHT22;56333;51.306;17.056;2023-08-06T21:37:00;15.60;87.05
69225;DHT22;56333;51.306;17.056;2023-08-06T21:38:28;15.59;87.03
69225;DHT22;56333;51.306;17.056;2023-08-06T21:39:55;15.59;87.07
69225;DHT22;56333;51.306;17.056;2023-08-06T21:41:24;15.59;87.10
69225;DHT22;56333;51.306;17.056;2023-08-06T21:42:51;15.57;87.10
69225;DHT22;56333;51.306;17.056;2023-08-06T21:44:18;15.56;87.13
69225;DHT22;56333;51.306;17.056;2023-08-06T21:45:45;15.56;87.20
69225;DHT22;56333;51.306;17.056;2023-08-06T21:47:13;15.56;87.20
69225;DHT22;56333;51.306;17.056;2023-08-06T21:48:41;15.57;87.20
69225;DHT22;56333;51.306;17.056;2023-08-06T21:50:09;15.55;87.25
69225;DHT22;56333;51.306;17.056;2023-08-06T21:51:36;15.58;87.30
69225;DHT22;56333;51.306;17.056;2023-08-06T21:53:02;15.56;87.30
69225;DHT22;56333;51.306;17.056;2023-08-06T21:54:30;15.59;87.35
69225;DHT22;56333;51.306;17.056;2023-08-06T21:55:58;15.58;87.40
69225;DHT22;56333;51.306;17.056;2023-08-06T21:57:29;15.60;87.40
69225;DHT22;56333;51.306;17.056;2023-08-06T21:58:56;15.62;87.38
69225;DHT22;56333;51.306;17.056;2023-08-06T22:00:23;15.60;87.40
69225;DHT22;56333;51.306;17.056;2023-08-06T22:01:52;15.61;87.35
69225;DHT22;56333;51.306;17.056;2023-08-06T22:03:19;15.60;87.38
69225;DHT22;56333;51.306;17.056;2023-08-06T22:04:46;15.59;87.35
69225;DHT22;56333;51.306;17.056;2023-08-06T22:06:13;15.60;87.45
69225;DHT22;56333;51.306;17.056;2023-08-06T22:07:40;15.59;87.43
69225;DHT22;56333;51.306;17.056;2023-08-06T22:09:07;15.56;87.50
69225;DHT22;56333;51.306;17.056;2023-08-06T22:10:36;15.55;87.55
69225;DHT22;56333;51.306;17.056;2023-08-06T22:12:04;15.53;87.60
69225;DHT22;56333;51.306;17.056;2023-08-06T22:13:32;15.52;87.53
69225;DHT22;56333;51.306;17.056;2023-08-06T22:15:02;15.49;87.60
69225;DHT22;56333;51.306;17.056;2023-08-06T22:16:30;15.48;87.70
69225;DHT22;56333;51.306;17.056;2023-08-06T22:17:57;15.45;87.80
69225;DHT22;56333;51.306;17.056;2023-08-06T22:19:24;15.46;87.75
69225;DHT22;56333;51.306;17.056;2023-08-06T22:20:52;15.47;87.75
69225;DHT22;56333;51.306;17.056;2023-08-06T22:22:21;15.46;87.63
69225;DHT22;56333;51.306;17.056;2023-08-06T22:23:48;15.46;87.68
69225;DHT22;56333;51.306;17.056;2023-08-06T22:25:15;15.44;87.53
69225;DHT22;56333;51.306;17.056;2023-08-06T22:26:42;15.46;87.43
69225;DHT22;56333;51.306;17.056;2023-08-06T22:28:09;15.43;87.25
69225;DHT22;56333;51.306;17.056;2023-08-06T22:29:36;15.40;87.05
69225;DHT22;56333;51.306;17.056;2023-08-06T22:31:03;15.39;87.10
69225;DHT22;56333;51.306;17.056;2023-08-06T22:32:30;15.38;87.20
69225;DHT22;56333;51.306;17.056;2023-08-06T22:33:57;15.38;87.25
69225;DHT22;56333;51.306;17.056;2023-08-06T22:35:24;15.37;87.25
69225;DHT22;56333;51.306;17.056;2023-08-06T22:36:51;15.37;87.35
69225;DHT22;56333;51.306;17.056;2023-08-06T22:38:18;15.38;87.50
69225;DHT22;56333;51.306;17.056;2023-08-06T22:39:45;15.38;87.53
69225;DHT22;56333;51.306;17.056;2023-08-06T22:41:13;15.38;87.57
69225;DHT22;56333;51.306;17.056;2023-08-06T22:42:40;15.37;87.63
69225;DHT22;56333;51.306;17.056;2023-08-06T22:44:07;15.38;87.60
69225;DHT22;56333;51.306;17.056;2023-08-06T22:45:34;15.40;87.68
69225;DHT22;56333;51.306;17.056;2023-08-06T22:47:01;15.41;87.72
69225;DHT22;56333;51.306;17.056;2023-08-06T22:48:29;15.40;87.75
69225;DHT22;56333;51.306;17.056;2023-08-06T22:49:55;15.37;87.95
69225;DHT22;56333;51.306;17.056;2023-08-06T22:51:23;15.36;88.05
69225;DHT22;56333;51.306;17.056;2023-08-06T22:52:50;15.36;88.07
69225;DHT22;56333;51.306;17.056;2023-08-06T22:54:16;15.38;88.10
69225;DHT22;56333;51.306;17.056;2023-08-06T22:55:43;15.39;88.03
69225;DHT22;56333;51.306;17.056;2023-08-06T22:57:10;15.38;88.13
69225;DHT22;56333;51.306;17.056;2023-08-06T22:58:37;15.38;88.13
69225;DHT22;56333;51.306;17.056;2023-08-06T23:00:07;15.40;88.05
69225;DHT22;56333;51.306;17.056;2023-08-06T23:01:35;15.40;88.00
69225;DHT22;56333;51.306;17.056;2023-08-06T23:03:01;15.41;87.97
69225;DHT22;56333;51.306;17.056;2023-08-06T23:04:29;15.43;87.95
69225;DHT22;56333;51.306;17.056;2023-08-06T23:05:55;15.41;87.80
69225;DHT22;56333;51.306;17.056;2023-08-06T23:07:23;15.41;87.80
69225;DHT22;56333;51.306;17.056;2023-08-06T23:08:50;15.40;87.72
69225;DHT22;56333;51.306;17.056;2023-08-06T23:10:17;15.39;87.75
69225;DHT22;56333;51.306;17.056;2023-08-06T23:11:44;15.38;87.80
69225;DHT22;56333;51.306;17.056;2023-08-06T23:13:11;15.38;87.78
69225;DHT22;56333;51.306;17.056;2023-08-06T23:14:38;15.38;87.75
69225;DHT22;56333;51.306;17.056;2023-08-06T23:16:05;15.37;87.82
69225;DHT22;56333;51.306;17.056;2023-08-06T23:17:32;15.39;87.80
69225;DHT22;56333;51.306;17.056;2023-08-06T23:18:59;15.40;87.80
69225;DHT22;56333;51.306;17.056;2023-08-06T23:20:26;15.40;87.80
69225;DHT22;56333;51.306;17.056;2023-08-06T23:21:53;15.40;87.80
69225;DHT22;56333;51.306;17.056;2023-08-06T23:23:20;15.40;87.75
69225;DHT22;56333;51.306;17.056;2023-08-06T23:24:47;15.39;87.75
69225;DHT22;56333;51.306;17.056;2023-08-06T23:26:14;15.40;87.85
69225;DHT22;56333;51.306;17.056;2023-08-06T23:27:42;15.43;87.80
69225;DHT22;56333;51.306;17.056;2023-08-06T23:29:09;15.45;87.85
69225;DHT22;56333;51.306;17.056;2023-08-06T23:30:36;15.45;87.82
69225;DHT22;56333;51.306;17.056;2023-08-06T23:32:05;15.45;87.80
69225;DHT22;56333;51.306;17.056;2023-08-06T23:33:32;15.46;87.72
69225;DHT22;56333;51.306;17.056;2023-08-06T23:34:59;15.47;87.78
69225;DHT22;56333;51.306;17.056;2023-08-06T23:36:27;15.47;87.68
69225;DHT22;56333;51.306;17.056;2023-08-06T23:37:55;15.47;87.63
69225;DHT22;56333;51.306;17.056;2023-08-06T23:39:23;15.49;87.65
69225;DHT22;56333;51.306;17.056;2023-08-06T23:40:50;15.49;87.70
69225;DHT22;56333;51.306;17.056;2023-08-06T23:42:18;15.52;87.68
69225;DHT22;56333;51.306;17.056;2023-08-06T23:43:44;15.52;87.68
69225;DHT22;56333;51.306;17.056;2023-08-06T23:45:12;15.53;87.70
69225;DHT22;56333;51.306;17.056;2023-08-06T23:46:39;15.53;87.53
69225;DHT22;56333;51.306;17.056;2023-08-06T23:48:07;15.54;87.50
69225;DHT22;56333;51.306;17.056;2023-08-06T23:49:35;15.56;87.43
69225;DHT22;56333;51.306;17.056;2023-08-06T23:51:02;15.54;87.35
69225;DHT22;56333;51.306;17.056;2023-08-06T23:52:29;15.55;87.30
69225;DHT22;56333;51.306;17.056;2023-08-06T23:53:56;15.55;87.30
69225;DHT22;56333;51.306;17.056;2023-08-06T23:55:23;15.54;87.30
69225;DHT22;56333;51.306;17.056;2023-08-06T23:56:50;15.54;87.38
69225;DHT22;56333;51.306;17.056;2023-08-06T23:58:17;15.51;87.30
69225;DHT22;56333;51.306;17.056;2023-08-06T23:59:44;15.49;87.35
